Time;durP1;ratioP1;P1;durP2;ratioP2;P2;SDS_P1;SDS_P2;PMS_P1;PMS_P2;Temp;Humidity;BMP_temperature;BMP_pressure;BME280_temperature;BME280_humidity;BME280_pressure;Samples;Min_cycle;Max_cycle;Signal;HPM_P1;HPM_P2
2022/04/23 00:00:59;;;;;;;13.55;12.15;;;;;;;11.13;60.06;98333.69;4950466;28;20043;-72
2022/04/23 00:03:24;;;;;;;16.92;13.52;;;;;;;11.10;60.34;98330.41;4951717;28;20094;-69
2022/04/23 00:05:49;;;;;;;15.32;12.18;;;;;;;11.04;60.40;98330.88;4950876;28;20047;-71
2022/04/23 00:08:15;;;;;;;14.55;12.48;;;;;;;10.97;60.83;98327.84;4954267;28;20106;-70
2022/04/23 00:10:40;;;;;;;15.68;12.48;;;;;;;10.95;60.74;98321.84;4952526;28;20038;-69
2022/04/23 00:13:06;;;;;;;13.63;11.20;;;;;;;10.94;60.88;98321.00;4952587;28;20039;-70
2022/04/23 00:15:37;;;;;;;14.40;11.85;;;;;;;10.94;60.89;98315.75;4954076;28;20110;-70
2022/04/23 00:18:09;;;;;;;15.95;11.80;;;;;;;10.96;60.88;98318.28;4953809;28;20031;-70
2022/04/23 00:20:36;;;;;;;13.45;11.85;;;;;;;10.91;60.86;98323.03;4953745;28;20031;-69
2022/04/23 00:23:03;;;;;;;18.30;12.50;;;;;;;10.81;61.35;98327.31;4953345;28;20035;-69
2022/04/23 00:25:29;;;;;;;15.95;11.82;;;;;;;10.79;61.61;98327.44;4953759;28;20508;-70
2022/04/23 00:27:54;;;;;;;12.55;11.07;;;;;;;10.83;61.53;98323.63;4952864;28;20039;-69
2022/04/23 00:30:20;;;;;;;14.38;11.25;;;;;;;10.82;61.44;98323.72;4953450;28;20036;-70
2022/04/23 00:32:46;;;;;;;17.15;12.07;;;;;;;10.78;61.50;98330.16;4951877;28;20049;-69
2022/04/23 00:35:16;;;;;;;13.50;12.10;;;;;;;10.76;61.72;98332.09;4953627;28;20047;-69
2022/04/23 00:37:42;;;;;;;14.00;12.50;;;;;;;10.76;61.38;98332.94;4953678;28;20043;-70
2022/04/23 00:40:16;;;;;;;15.07;11.90;;;;;;;10.75;61.65;98328.59;4952830;28;20043;-68
2022/04/23 00:42:54;;;;;;;14.07;12.55;;;;;;;10.75;61.96;98328.59;4952667;28;20511;-69
2022/04/23 00:45:20;;;;;;;14.63;12.35;;;;;;;10.67;61.62;98321.25;4953419;28;20499;-68
2022/04/23 00:47:46;;;;;;;15.32;12.57;;;;;;;10.67;62.23;98320.41;4953545;28;20093;-70
2022/04/23 00:50:12;;;;;;;14.15;11.52;;;;;;;10.68;62.14;98324.72;4953503;28;20137;-68
2022/04/23 00:52:38;;;;;;;18.38;13.65;;;;;;;10.65;62.28;98322.31;4956849;28;20120;-70
2022/04/23 00:55:05;;;;;;;14.70;12.30;;;;;;;10.69;62.18;98326.41;4959018;28;20043;-70
2022/04/23 00:57:32;;;;;;;16.50;12.35;;;;;;;10.70;62.42;98328.94;4958443;28;20058;-70
2022/04/23 01:00:00;;;;;;;19.08;13.13;;;;;;;10.69;62.17;98326.41;4955423;28;20035;-70
2022/04/23 01:02:25;;;;;;;18.65;13.02;;;;;;;10.68;62.32;98322.94;4970350;28;20035;-69
2022/04/23 01:04:54;;;;;;;13.60;12.15;;;;;;;10.71;62.52;98324.53;4952896;28;20043;-69
2022/04/23 01:07:20;;;;;;;17.58;13.63;;;;;;;10.72;61.87;98315.66;4951909;28;20109;-70
2022/04/23 01:09:47;;;;;;;16.15;13.13;;;;;;;10.74;62.16;98316.38;4953364;28;20571;-69
2022/04/23 01:12:13;;;;;;;15.88;12.02;;;;;;;10.77;61.93;98316.16;4952097;28;20089;-68
2022/04/23 01:15:15;;;;;;;17.25;12.48;;;;;;;10.74;61.96;98311.94;4952266;28;20039;-70
2022/04/23 01:17:42;;;;;;;15.02;11.48;;;;;;;10.71;62.15;98316.63;4952011;28;20035;-70
2022/04/23 01:20:09;;;;;;;16.05;11.82;;;;;;;10.76;62.22;98300.47;4954333;28;20042;-69
2022/04/23 01:22:36;;;;;;;15.70;11.68;;;;;;;10.79;61.72;98306.34;4960338;28;20040;-69
2022/04/23 01:25:06;;;;;;;17.30;11.55;;;;;;;10.79;61.89;98305.50;4962884;28;20031;-71
2022/04/23 01:27:32;;;;;;;14.27;12.75;;;;;;;10.80;61.93;98302.72;4956423;28;20718;-70
2022/04/23 01:29:57;;;;;;;15.55;13.00;;;;;;;10.81;62.05;98301.78;4953552;28;20039;-70
2022/04/23 01:32:23;;;;;;;16.15;12.68;;;;;;;10.78;61.99;98299.41;4952447;28;20187;-71
2022/04/23 01:34:49;;;;;;;19.45;13.45;;;;;;;10.81;61.34;98306.22;4951559;28;20503;-70
2022/04/23 01:37:14;;;;;;;16.90;13.10;;;;;;;10.79;62.01;98295.78;4953399;28;20074;-69
2022/04/23 01:39:40;;;;;;;14.15;12.65;;;;;;;10.75;61.82;98296.97;4953816;28;20418;-68
2022/04/23 01:42:06;;;;;;;19.73;12.65;;;;;;;10.81;61.60;98298.31;4953963;28;20085;-69
2022/04/23 01:44:31;;;;;;;17.27;12.98;;;;;;;10.83;61.48;98297.25;4954256;28;20483;-68
2022/04/23 01:46:57;;;;;;;13.65;12.15;;;;;;;10.76;61.82;98305.72;4952793;28;20095;-69
2022/04/23 01:49:22;;;;;;;14.48;12.77;;;;;;;10.74;61.67;98300.56;4951367;28;20060;-70
2022/04/23 01:51:47;;;;;;;15.52;13.15;;;;;;;10.74;61.71;98297.94;4952181;28;20045;-68
2022/04/23 01:54:13;;;;;;;14.95;13.27;;;;;;;10.73;61.77;98297.09;4952773;28;20046;-69
2022/04/23 01:56:38;;;;;;;18.15;12.38;;;;;;;10.71;61.72;98295.53;4949569;28;20040;-68
2022/04/23 01:59:03;;;;;;;16.65;13.70;;;;;;;10.66;61.75;98295.03;4951914;28;20039;-69
2022/04/23 02:01:28;;;;;;;14.80;12.57;;;;;;;10.64;62.00;98292.50;4951160;28;20163;-69
2022/04/23 02:03:54;;;;;;;16.00;12.68;;;;;;;10.63;61.94;98297.88;4951876;28;20039;-69
2022/04/23 02:06:19;;;;;;;20.00;12.77;;;;;;;10.64;61.87;98294.28;4952497;28;20404;-69
2022/04/23 02:08:44;;;;;;;14.77;12.25;;;;;;;10.56;61.92;98299.25;4952513;28;20484;-69
2022/04/23 02:11:10;;;;;;;18.00;13.35;;;;;;;10.50;62.15;98288.22;4950637;28;20043;-68
2022/04/23 02:13:35;;;;;;;16.25;12.45;;;;;;;10.44;62.72;98287.84;4952416;28;20035;-68
2022/04/23 02:16:04;;;;;;;21.05;12.77;;;;;;;10.41;62.20;98288.91;4952346;28;20047;-68
2022/04/23 02:18:30;;;;;;;15.55;12.48;;;;;;;10.41;62.48;98288.91;4952304;28;20488;-68
2022/04/23 02:20:55;;;;;;;14.32;12.48;;;;;;;10.39;62.14;98290.81;4952337;28;20098;-68
2022/04/23 02:23:21;;;;;;;22.38;13.27;;;;;;;10.35;62.35;98294.59;4951952;28;20487;-69
2022/04/23 02:25:46;;;;;;;16.02;13.10;;;;;;;10.30;62.55;98297.56;4952038;28;20059;-68
2022/04/23 02:28:12;;;;;;;13.98;12.48;;;;;;;10.28;62.49;98298.63;4951842;28;20039;-68
2022/04/23 02:30:38;;;;;;;14.60;11.85;;;;;;;10.20;62.98;98299.16;4952049;28;20059;-68
2022/04/23 02:33:03;;;;;;;16.90;12.38;;;;;;;10.16;62.95;98302.94;4951553;28;20429;-69
2022/04/23 02:35:29;;;;;;;14.85;12.20;;;;;;;10.10;63.13;98304.22;4951856;28;20136;-69
2022/04/23 02:38:00;;;;;;;14.90;13.02;;;;;;;10.05;63.54;98300.25;4951756;28;20062;-69
2022/04/23 02:40:25;;;;;;;17.15;13.25;;;;;;;10.05;63.32;98300.25;4949812;28;20039;-68
2022/04/23 02:42:51;;;;;;;16.25;12.35;;;;;;;10.02;63.69;98301.31;4951499;28;20118;-69
2022/04/23 02:45:17;;;;;;;14.32;11.88;;;;;;;9.96;63.90;98304.38;4951920;28;20034;-68
2022/04/23 02:47:50;;;;;;;22.73;14.07;;;;;;;9.87;64.29;98302.41;4951779;28;20031;-69
2022/04/23 02:50:30;;;;;;;14.70;13.18;;;;;;;9.80;63.92;98295.88;4951533;28;20105;-69
2022/04/23 02:52:58;;;;;;;16.40;13.77;;;;;;;9.75;64.63;98298.00;4950938;28;20031;-69
2022/04/23 02:55:25;;;;;;;15.38;13.77;;;;;;;9.74;64.84;98294.50;4951410;28;20503;-69
2022/04/23 02:57:51;;;;;;;15.80;13.98;;;;;;;9.68;64.63;98293.16;4951416;28;20061;-68
2022/04/23 03:00:19;;;;;;;16.23;13.90;;;;;;;9.70;64.40;98300.06;4949870;28;20094;-69
2022/04/23 03:02:47;;;;;;;14.88;12.88;;;;;;;9.70;64.49;98295.69;4950615;28;20046;-69
2022/04/23 03:05:14;;;;;;;17.42;12.75;;;;;;;9.71;64.28;98291.25;4951442;28;20397;-69
2022/04/23 03:07:40;;;;;;;16.52;13.43;;;;;;;9.68;64.88;98289.69;4951646;28;20035;-69
2022/04/23 03:10:07;;;;;;;16.10;13.48;;;;;;;9.64;65.15;98290.84;4951366;28;20062;-69
2022/04/23 03:12:32;;;;;;;17.25;12.82;;;;;;;9.59;65.40;98291.16;4950419;28;20407;-69
2022/04/23 03:14:57;;;;;;;16.17;11.75;;;;;;;9.60;64.58;98287.59;4951380;28;20039;-69
2022/04/23 03:17:23;;;;;;;15.55;13.95;;;;;;;9.59;65.34;98295.56;4966172;28;20039;-69
2022/04/23 03:19:49;;;;;;;18.20;13.95;;;;;;;9.58;65.04;98304.44;4951785;28;20059;-70
2022/04/23 03:22:16;;;;;;;17.45;14.25;;;;;;;9.55;65.41;98294.97;4950393;28;20130;-68
2022/04/23 03:24:41;;;;;;;18.00;14.25;;;;;;;9.54;65.21;98300.31;4951346;28;20039;-69
2022/04/23 03:27:07;;;;;;;18.75;15.25;;;;;;;9.46;65.92;98296.41;4951489;28;20489;-69
2022/04/23 03:29:33;;;;;;;17.05;14.80;;;;;;;9.45;66.09;98300.00;4951139;28;20031;-68
2022/04/23 03:31:59;;;;;;;17.17;15.00;;;;;;;9.42;65.56;98294.09;4950152;28;20027;-69
2022/04/23 03:34:24;;;;;;;17.15;14.05;;;;;;;9.42;66.36;98287.03;4950920;28;20624;-69
2022/04/23 03:36:50;;;;;;;20.33;15.05;;;;;;;9.39;66.68;98287.25;4951107;28;20063;-69
2022/04/23 03:39:15;;;;;;;21.15;15.90;;;;;;;9.37;66.05;98293.56;4951089;28;20039;-68
2022/04/23 03:41:41;;;;;;;15.63;13.63;;;;;;;9.36;66.15;98281.38;4951979;28;20117;-69
2022/04/23 03:44:06;;;;;;;17.27;14.52;;;;;;;9.34;67.01;98286.72;4954574;28;20082;-68
2022/04/23 03:46:32;;;;;;;28.55;16.27;;;;;;;9.32;66.26;98291.25;4954566;28;20066;-69
2022/04/23 03:48:58;;;;;;;18.15;14.98;;;;;;;9.33;66.22;98295.59;4954516;28;20618;-69
2022/04/23 03:51:23;;;;;;;18.92;16.48;;;;;;;9.28;66.99;98289.81;4954099;28;20043;-69
2022/04/23 03:53:48;;;;;;;20.88;15.85;;;;;;;9.24;67.02;98288.31;4954738;28;20055;-68
2022/04/23 03:56:14;;;;;;;20.20;15.23;;;;;;;9.21;67.16;98286.72;4954643;28;20607;-69
2022/04/23 03:58:39;;;;;;;19.60;17.50;;;;;;;9.20;67.33;98290.28;4953436;28;20118;-69
2022/04/23 04:01:05;;;;;;;21.23;15.85;;;;;;;9.20;67.08;98277.16;4953821;28;20106;-70
2022/04/23 04:03:30;;;;;;;19.80;16.30;;;;;;;9.18;66.85;98279.06;4954632;28;20035;-68
2022/04/23 04:05:55;;;;;;;18.92;16.23;;;;;;;9.20;67.74;98285.03;4954545;28;20561;-68
2022/04/23 04:08:21;;;;;;;19.20;15.27;;;;;;;9.18;67.75;98279.06;4954128;28;20035;-68
2022/04/23 04:10:46;;;;;;;18.90;15.52;;;;;;;9.15;67.90;98281.88;4954497;28;20110;-68
2022/04/23 04:13:14;;;;;;;17.95;15.55;;;;;;;9.13;67.60;98280.28;4954269;28;20035;-69
2022/04/23 04:15:41;;;;;;;20.83;15.85;;;;;;;9.07;67.84;98281.56;4954002;28;20090;-69
2022/04/23 04:18:08;;;;;;;24.20;18.10;;;;;;;9.05;67.84;98272.09;4954618;28;20041;-69
2022/04/23 04:20:34;;;;;;;18.38;16.08;;;;;;;9.06;68.35;98272.00;4953692;28;20400;-69
2022/04/23 04:23:00;;;;;;;21.35;17.38;;;;;;;9.06;68.09;98271.13;4953711;28;20035;-69
2022/04/23 04:25:25;;;;;;;23.08;19.17;;;;;;;9.02;68.25;98267.88;4954136;28;20451;-69
2022/04/23 04:27:50;;;;;;;21.77;17.52;;;;;;;9.02;68.26;98278.41;4954284;28;20042;-69
2022/04/23 04:30:16;;;;;;;23.30;17.77;;;;;;;9.00;68.12;98275.88;4953856;28;20122;-69
2022/04/23 04:32:42;;;;;;;19.55;17.35;;;;;;;8.97;68.16;98267.34;4953718;28;20035;-68
2022/04/23 04:35:09;;;;;;;19.77;15.70;;;;;;;8.99;68.49;98268.09;4954074;28;20523;-70
2022/04/23 04:37:34;;;;;;;22.17;17.70;;;;;;;9.01;68.82;98261.78;4955437;28;20106;-69
2022/04/23 04:40:00;;;;;;;20.92;17.15;;;;;;;9.01;68.23;98261.78;4956294;28;20085;-68
2022/04/23 04:42:27;;;;;;;22.63;16.95;;;;;;;9.05;68.45;98265.03;4956976;28;20043;-67
2022/04/23 04:44:52;;;;;;;21.30;15.95;;;;;;;9.07;68.71;98260.53;4955241;28;20059;-69
2022/04/23 04:47:18;;;;;;;19.90;16.58;;;;;;;9.06;68.93;98264.13;4954509;28;20039;-70
2022/04/23 04:49:43;;;;;;;27.38;18.73;;;;;;;9.05;68.32;98265.03;4952872;28;20055;-68
2022/04/23 04:52:09;;;;;;;21.13;17.58;;;;;;;9.05;68.48;98270.31;4953319;28;20043;-70
2022/04/23 04:54:35;;;;;;;20.83;17.23;;;;;;;9.06;68.60;98264.13;4953774;28;20094;-69
2022/04/23 04:57:02;;;;;;;24.40;18.55;;;;;;;9.06;68.42;98269.38;4954008;28;20050;-69
2022/04/23 04:59:31;;;;;;;22.38;19.40;;;;;;;9.09;68.92;98279.69;4953930;28;20046;-69
2022/04/23 05:01:57;;;;;;;23.58;17.73;;;;;;;9.16;68.96;98275.69;4952818;28;20500;-69
2022/04/23 05:04:22;;;;;;;21.33;18.55;;;;;;;9.18;68.70;98265.06;4953815;28;20053;-69
2022/04/23 05:06:47;;;;;;;23.25;17.25;;;;;;;9.27;68.56;98280.22;4953412;28;20039;-69
2022/04/23 05:09:13;;;;;;;21.75;17.85;;;;;;;9.34;67.86;98272.75;4956085;28;20055;-70
2022/04/23 05:11:38;;;;;;;25.70;17.63;;;;;;;9.37;68.22;98269.91;4957049;28;20500;-70
2022/04/23 05:14:04;;;;;;;24.42;18.30;;;;;;;9.40;67.75;98278.44;4953107;28;20113;-69
2022/04/23 05:16:29;;;;;;;23.05;18.88;;;;;;;9.46;67.85;98275.38;4952959;28;20031;-69
2022/04/23 05:18:55;;;;;;;27.52;20.48;;;;;;;9.49;67.92;98282.22;4953030;28;20491;-69
2022/04/23 05:21:20;;;;;;;19.42;17.33;;;;;;;9.58;67.76;98272.84;4952061;28;20118;-68
2022/04/23 05:23:46;;;;;;;23.20;17.00;;;;;;;9.70;67.95;98274.63;4952733;28;20051;-70
2022/04/23 05:26:11;;;;;;;20.73;16.92;;;;;;;9.77;67.26;98277.66;4954284;28;20039;-69
2022/04/23 05:28:39;;;;;;;22.67;18.00;;;;;;;9.87;66.99;98270.81;4951733;28;20393;-69
2022/04/23 05:31:04;;;;;;;23.77;18.83;;;;;;;9.94;66.47;98279.09;4952464;28;20031;-68
2022/04/23 05:33:29;;;;;;;22.88;17.45;;;;;;;9.99;66.38;98275.22;4952609;28;20090;-70
2022/04/23 05:35:55;;;;;;;23.73;19.60;;;;;;;10.09;66.52;98270.97;4952761;28;20558;-68
2022/04/23 05:38:22;;;;;;;22.05;18.27;;;;;;;10.14;65.80;98273.28;4951480;28;20034;-69
2022/04/23 05:40:48;;;;;;;23.23;18.58;;;;;;;10.21;65.96;98271.03;4952452;28;20047;-68
2022/04/23 05:43:14;;;;;;;21.20;16.27;;;;;;;10.29;65.50;98276.63;4950997;28;20698;-69
2022/04/23 05:45:40;;;;;;;21.83;18.08;;;;;;;10.29;65.54;98277.47;4953028;28;20134;-69
2022/04/23 05:48:05;;;;;;;24.45;19.30;;;;;;;10.27;65.69;98275.88;4952803;28;20061;-69
2022/04/23 05:50:31;;;;;;;21.30;17.17;;;;;;;10.38;65.32;98275.94;4952763;28;20514;-70
2022/04/23 05:52:56;;;;;;;22.55;20.10;;;;;;;10.38;64.93;98275.94;4952469;28;20122;-70
2022/04/23 05:55:22;;;;;;;22.42;17.00;;;;;;;10.49;64.78;98269.91;4952943;28;20110;-70
2022/04/23 05:57:47;;;;;;;20.95;16.65;;;;;;;10.63;64.49;98260.97;4949922;28;20058;-69
2022/04/23 06:00:13;;;;;;;21.77;18.60;;;;;;;10.67;64.04;98265.91;4951719;28;20042;-69
2022/04/23 06:02:39;;;;;;;19.63;16.42;;;;;;;10.71;63.72;98269.16;4942237;28;20086;-70
2022/04/23 06:05:05;;;;;;;20.70;17.42;;;;;;;10.67;64.23;98268.53;4944525;28;20043;-71
2022/04/23 06:07:31;;;;;;;19.98;16.90;;;;;;;10.80;63.37;98267.63;4953784;28;20035;-69
2022/04/23 06:09:56;;;;;;;23.17;19.88;;;;;;;11.08;62.39;98275.16;4957164;28;20701;-69
2022/04/23 06:12:22;;;;;;;20.20;16.63;;;;;;;11.23;62.41;98273.16;4952383;28;20110;-70
2022/04/23 06:14:49;;;;;;;21.55;17.48;;;;;;;11.38;61.47;98271.13;4952213;28;20042;-68
2022/04/23 06:17:14;;;;;;;22.13;17.55;;;;;;;11.44;60.69;98269.81;4952258;28;20034;-69
2022/04/23 06:19:40;;;;;;;22.17;17.70;;;;;;;11.54;60.95;98274.28;4952441;28;20046;-66
2022/04/23 06:22:06;;;;;;;19.35;16.48;;;;;;;11.85;59.91;98266.59;4951392;28;20047;-66
2022/04/23 06:24:32;;;;;;;19.10;16.30;;;;;;;12.08;59.61;98269.25;4951644;28;20047;-67
2022/04/23 06:26:58;;;;;;;21.88;17.80;;;;;;;12.14;58.81;98266.13;4951767;28;20515;-66
2022/04/23 06:29:23;;;;;;;18.88;16.30;;;;;;;12.38;58.33;98258.88;4952403;28;20062;-66
2022/04/23 06:31:49;;;;;;;18.95;16.02;;;;;;;12.73;57.36;98254.31;4951152;28;20443;-66
2022/04/23 06:34:14;;;;;;;19.65;16.75;;;;;;;12.93;56.62;98258.75;4951694;28;20050;-66
2022/04/23 06:36:40;;;;;;;17.83;15.43;;;;;;;13.17;55.74;98261.16;4952083;28;20051;-67
2022/04/23 06:39:06;;;;;;;17.52;14.50;;;;;;;13.28;54.95;98269.03;4951264;28;20039;-67
2022/04/23 06:41:31;;;;;;;20.50;16.58;;;;;;;13.06;56.22;98263.84;4950998;28;20062;-66
2022/04/23 06:43:56;;;;;;;23.90;15.70;;;;;;;13.05;56.21;98255.09;4951721;28;20115;-66
2022/04/23 06:46:22;;;;;;;19.23;15.15;;;;;;;13.36;55.73;98257.81;4951724;28;20055;-66
2022/04/23 06:48:47;;;;;;;17.77;13.70;;;;;;;13.66;55.05;98249.06;4951285;28;20078;-67
2022/04/23 06:51:12;;;;;;;16.73;14.48;;;;;;;13.67;54.29;98250.72;4950509;28;20465;-67
2022/04/23 06:53:38;;;;;;;16.27;14.52;;;;;;;13.82;54.41;98258.31;4952257;28;20035;-65
2022/04/23 06:56:04;;;;;;;19.40;15.55;;;;;;;13.93;53.42;98252.91;4952149;28;20054;-65
2022/04/23 06:58:30;;;;;;;21.75;17.05;;;;;;;14.00;53.38;98256.69;4951708;28;20045;-66
2022/04/23 07:00:55;;;;;;;21.75;14.88;;;;;;;14.04;53.81;98249.31;4950926;28;20118;-66
2022/04/23 07:03:21;;;;;;;16.50;14.70;;;;;;;14.19;52.98;98250.63;4950727;28;20035;-66
2022/04/23 07:05:47;;;;;;;19.02;14.60;;;;;;;14.36;53.49;98249.13;4949997;28;20027;-66
2022/04/23 07:08:12;;;;;;;16.70;14.73;;;;;;;14.60;51.76;98256.72;4950740;28;20086;-66
2022/04/23 07:10:38;;;;;;;16.98;15.20;;;;;;;14.91;51.18;98249.44;4937591;28;20446;-67
2022/04/23 07:13:04;;;;;;;19.48;15.68;;;;;;;14.89;51.50;98251.41;4944650;28;20039;-67
2022/04/23 07:15:30;;;;;;;21.70;15.10;;;;;;;14.98;51.10;98249.72;4948268;28;20410;-66
2022/04/23 07:17:56;;;;;;;17.05;15.27;;;;;;;15.04;50.32;98257.13;4950072;28;20050;-66
2022/04/23 07:20:22;;;;;;;17.70;15.57;;;;;;;14.65;51.33;98259.78;4949371;28;20122;-66
2022/04/23 07:25:36;;;;;;;17.98;16.02;;;;;;;14.43;51.80;98255.53;4949496;28;20050;-69
2022/04/23 07:28:02;;;;;;;16.02;14.27;;;;;;;14.41;52.05;98248.72;4950558;28;20487;-69
2022/04/23 07:30:29;;;;;;;16.00;14.07;;;;;;;14.82;50.93;98247.66;4949851;28;20039;-72
2022/04/23 07:32:55;;;;;;;15.75;13.27;;;;;;;15.36;49.86;98240.84;4950332;28;20038;-69
2022/04/23 07:38:12;;;;;;;18.73;15.63;;;;;;;15.55;49.10;98250.56;4950730;28;20065;-69
2022/04/23 07:40:40;;;;;;;23.98;15.25;;;;;;;15.19;49.61;98250.41;4950946;28;20110;-70
2022/04/23 07:43:12;;;;;;;18.38;14.55;;;;;;;15.06;50.54;98255.16;4950354;28;20043;-68
2022/04/23 07:45:39;;;;;;;19.95;14.77;;;;;;;15.34;49.85;98244.63;4948408;28;20130;-71
2022/04/23 07:48:05;;;;;;;14.95;13.38;;;;;;;15.72;49.31;98242.88;4949675;28;20039;-69
2022/04/23 07:50:32;;;;;;;18.95;14.20;;;;;;;16.26;47.80;98254.47;4949666;28;20047;-69
2022/04/23 07:52:58;;;;;;;17.05;13.52;;;;;;;16.31;47.77;98239.75;4949673;28;20054;-70
2022/04/23 07:55:23;;;;;;;15.68;12.63;;;;;;;16.42;47.15;98237.88;4950244;28;20711;-68
2022/04/23 07:57:49;;;;;;;18.10;14.57;;;;;;;16.30;47.00;98238.09;4950824;28;20039;-70
2022/04/23 08:00:15;;;;;;;17.75;14.93;;;;;;;15.99;48.26;98247.34;4951049;28;20042;-68
2022/04/23 08:02:40;;;;;;;16.02;13.60;;;;;;;15.96;48.22;98237.84;4950578;28;20035;-67
2022/04/23 08:05:06;;;;;;;17.08;13.55;;;;;;;16.13;48.13;98246.03;4950420;28;20047;-70
2022/04/23 08:07:31;;;;;;;16.98;13.60;;;;;;;16.33;48.00;98242.25;4950582;28;20039;-70
2022/04/23 08:09:57;;;;;;;16.63;11.90;;;;;;;16.02;48.02;98237.28;4951557;28;20042;-70
2022/04/23 08:12:22;;;;;;;13.27;11.98;;;;;;;15.97;48.70;98247.50;4939635;28;20550;-72
2022/04/23 08:14:47;;;;;;;18.48;12.90;;;;;;;15.68;49.47;98237.81;4947684;28;20538;-69
2022/04/23 08:17:13;;;;;;;15.45;12.95;;;;;;;15.61;49.30;98251.81;4949918;28;20516;-69
2022/04/23 08:19:38;;;;;;;16.52;12.20;;;;;;;15.41;49.92;98248.41;4950804;28;20454;-71
2022/04/23 08:22:04;;;;;;;13.43;12.02;;;;;;;15.41;49.89;98243.09;4946808;28;20043;-68
2022/04/23 08:24:31;;;;;;;14.98;12.40;;;;;;;15.24;50.48;98257.94;4949221;28;20541;-69
2022/04/23 08:26:57;;;;;;;19.42;12.35;;;;;;;15.34;50.67;98244.63;4949425;28;20035;-67
2022/04/23 08:32:06;;;;;;;13.25;10.45;;;;;;;16.13;51.98;98243.38;4948152;28;20408;-60
2022/04/23 08:34:31;;;;;;;13.75;11.48;;;;;;;16.44;48.84;98242.06;4948728;28;20039;-57
2022/04/23 08:36:57;;;;;;;15.32;11.45;;;;;;;16.31;49.52;98244.22;4946429;28;20039;-56
2022/04/23 08:39:22;;;;;;;35.05;11.57;;;;;;;16.64;48.79;98245.41;4947595;28;20098;-55
2022/04/23 08:41:48;;;;;;;14.90;11.38;;;;;;;16.51;48.67;98250.25;4946853;28;20515;-60
2022/04/23 08:44:16;;;;;;;17.02;12.80;;;;;;;16.30;48.60;98251.38;4947171;28;20031;-70
2022/04/23 08:46:41;;;;;;;14.13;11.50;;;;;;;16.05;49.19;98249.44;4948466;28;20035;-67
2022/04/23 08:49:13;;;;;;;15.15;11.77;;;;;;;15.51;50.74;98257.16;4941164;28;20038;-69
2022/04/23 08:51:40;;;;;;;13.75;11.52;;;;;;;15.38;51.20;98254.84;4946745;28;20042;-66
2022/04/23 08:54:11;;;;;;;13.13;10.32;;;;;;;15.32;51.20;98249.25;4947502;28;20500;-70
2022/04/23 08:56:40;;;;;;;14.35;12.60;;;;;;;14.99;51.95;98264.69;4947316;28;20510;-69
2022/04/23 08:59:07;;;;;;;12.73;11.35;;;;;;;14.96;52.28;98255.19;4950252;28;20170;-67
2022/04/23 09:01:34;;;;;;;13.90;11.13;;;;;;;15.09;52.39;98254.88;4947539;28;20042;-68
2022/04/23 09:04:01;;;;;;;21.08;11.45;;;;;;;15.03;52.55;98256.28;4948112;28;20035;-70
2022/04/23 09:06:46;;;;;;;13.40;10.27;;;;;;;15.50;51.55;98249.34;4947606;28;20142;-68
2022/04/23 09:09:15;;;;;;;11.43;10.23;;;;;;;16.29;49.98;98243.53;4929863;28;20035;-68
2022/04/23 09:11:43;;;;;;;15.82;10.48;;;;;;;16.39;48.87;98240.81;4928943;28;20039;-69
2022/04/23 09:14:22;;;;;;;15.05;10.63;;;;;;;16.70;48.47;98226.16;4928365;28;20043;-71
2022/04/23 09:25:10;;;;;;;13.10;7.82;;;;;;;18.01;46.46;98239.53;4942811;28;20082;-55
2022/04/23 09:27:41;;;;;;;9.10;8.23;;;;;;;18.64;43.43;98243.56;4948754;28;20449;-53
2022/04/23 09:30:08;;;;;;;9.70;7.47;;;;;;;19.42;42.86;98245.75;4949700;28;20043;-57
2022/04/23 09:32:34;;;;;;;11.52;8.60;;;;;;;19.11;42.34;98250.94;4948733;28;20087;-53
2022/04/23 09:35:18;;;;;;;11.82;9.18;;;;;;;18.43;43.54;98244.00;4948617;28;20102;-58
2022/04/23 09:40:28;;;;;;;14.50;10.30;;;;;;;18.36;43.55;98245.66;4947712;28;20050;-57
2022/04/23 09:42:57;;;;;;;13.13;8.15;;;;;;;17.90;44.87;98253.19;4949934;28;20045;-56
2022/04/23 09:45:26;;;;;;;11.05;8.93;;;;;;;17.53;45.17;98244.44;4946896;28;20039;-58
2022/04/23 09:47:52;;;;;;;11.55;7.95;;;;;;;17.81;44.67;98246.97;4945919;28;20039;-66
2022/04/23 09:50:18;;;;;;;11.65;7.85;;;;;;;17.64;45.35;98251.31;4945877;28;20077;-66
2022/04/23 09:52:45;;;;;;;12.40;9.27;;;;;;;17.35;45.67;98243.66;4946119;28;20027;-65
2022/04/23 09:55:12;;;;;;;205.40;146.23;;;;;;;17.34;46.37;98248.16;4947320;28;20082;-68
2022/04/23 09:57:38;;;;;;;92.82;72.30;;;;;;;17.17;46.26;98246.38;4946705;28;20094;-63
2022/04/23 10:00:11;;;;;;;374.70;309.88;;;;;;;17.70;46.49;98241.88;5113923;27;20144;-55
2022/04/23 10:02:38;;;;;;;77.00;55.20;;;;;;;18.05;44.55;98238.22;5102073;28;20099;-55
2022/04/23 10:05:04;;;;;;;48.55;38.20;;;;;;;18.32;44.59;98249.66;5102205;28;20144;-57
2022/04/23 10:07:33;;;;;;;16.42;10.60;;;;;;;17.94;44.98;98241.19;5103005;28;20039;-57
2022/04/23 10:10:02;;;;;;;11.82;9.13;;;;;;;18.11;44.92;98234.91;5101460;28;20035;-57
2022/04/23 10:12:33;;;;;;;14.35;9.30;;;;;;;18.88;43.22;98235.59;5102162;28;20056;-56
2022/04/23 10:15:00;;;;;;;12.13;9.25;;;;;;;19.15;43.03;98235.41;5102924;28;20040;-58
2022/04/23 10:17:28;;;;;;;9.07;6.97;;;;;;;19.19;42.77;98242.09;5101113;28;20056;-56
2022/04/23 10:19:54;;;;;;;29.40;9.50;;;;;;;19.94;40.02;98241.78;5101229;28;20040;-54
2022/04/23 10:22:34;;;;;;;9.35;7.20;;;;;;;20.19;39.96;98231.81;5099318;28;20065;-58
2022/04/23 10:25:27;;;;;;;8.93;7.15;;;;;;;20.88;38.57;98223.84;5101168;28;20044;-55
2022/04/23 10:27:56;;;;;;;8.10;7.13;;;;;;;21.83;36.57;98222.44;5101914;28;20044;-59
2022/04/23 10:30:21;;;;;;;12.98;10.50;;;;;;;21.84;35.73;98224.13;5100939;28;20040;-69
2022/04/23 10:32:47;;;;;;;8.55;7.53;;;;;;;21.94;36.09;98239.94;5100069;28;20088;-67
2022/04/23 10:35:18;;;;;;;12.45;8.23;;;;;;;22.03;35.71;98212.81;5100548;28;20035;-68
2022/04/23 10:37:46;;;;;;;9.57;8.57;;;;;;;21.91;35.08;98218.84;5100298;28;20040;-70
2022/04/23 10:40:11;;;;;;;9.43;7.28;;;;;;;21.99;35.33;98221.41;5100309;28;20031;-71
2022/04/23 10:42:38;;;;;;;11.10;7.50;;;;;;;21.57;35.65;98242.50;5099887;28;20046;-69
2022/04/23 10:45:05;;;;;;;13.13;7.55;;;;;;;21.53;36.27;98222.44;5100508;28;20330;-66
2022/04/23 10:47:33;;;;;;;9.48;7.47;;;;;;;21.68;36.02;98226.97;5100669;28;20118;-67
2022/04/23 10:50:22;;;;;;;10.23;8.20;;;;;;;21.30;36.56;98227.84;5098288;28;20063;-66
2022/04/23 10:52:55;;;;;;;12.13;7.47;;;;;;;21.08;36.77;98224.19;5098858;28;20573;-70
2022/04/23 10:55:21;;;;;;;8.57;7.18;;;;;;;20.88;36.92;98215.00;5098561;28;20122;-70
2022/04/23 10:57:49;;;;;;;10.45;7.15;;;;;;;20.75;37.37;98227.13;5100229;28;20177;-69
2022/04/23 11:00:17;;;;;;;17.92;7.43;;;;;;;20.47;37.76;98220.59;5097941;28;20043;-70
2022/04/23 11:02:47;;;;;;;8.23;7.40;;;;;;;19.78;38.63;98225.78;5099709;28;20458;-71
2022/04/23 11:13:52;;;;;;;11.55;7.93;;;;;;;19.38;39.65;98217.69;5086192;28;20046;-69
2022/04/23 11:16:20;;;;;;;13.77;7.43;;;;;;;19.29;39.57;98208.84;5086277;28;20153;-69
2022/04/23 11:18:48;;;;;;;9.48;8.30;;;;;;;19.26;39.63;98211.84;5086545;28;20036;-70
2022/04/23 11:21:18;;;;;;;11.70;7.25;;;;;;;19.41;39.77;98206.66;5085242;28;20036;-68
2022/04/23 11:23:45;;;;;;;7.85;6.97;;;;;;;19.43;39.29;98206.47;5086541;28;20147;-69
2022/04/23 11:26:15;;;;;;;9.52;7.45;;;;;;;19.28;39.67;98220.53;5086494;28;20043;-69
2022/04/23 11:28:41;;;;;;;8.30;6.38;;;;;;;19.40;39.88;98196.97;5086524;28;20099;-69
2022/04/23 11:31:15;;;;;;;12.48;6.32;;;;;;;19.60;39.43;98201.94;5085734;28;20032;-71
2022/04/23 11:34:01;;;;;;;8.73;6.65;;;;;;;19.44;39.25;98211.66;5086560;28;20040;-69
2022/04/23 11:36:32;;;;;;;10.15;7.10;;;;;;;19.22;39.89;98212.34;5086171;28;20036;-68
2022/04/23 11:38:59;;;;;;;16.58;7.32;;;;;;;19.14;39.88;98207.84;5087431;28;20035;-69
2022/04/23 11:41:25;;;;;;;15.13;7.85;;;;;;;19.00;39.87;98209.41;5088643;28;20095;-69
2022/04/23 11:43:51;;;;;;;11.73;6.55;;;;;;;18.95;41.24;98203.72;5091012;28;20024;-52
2022/04/23 11:46:16;;;;;;;15.70;6.95;;;;;;;19.09;39.71;98203.03;5092471;28;20028;-51
2022/04/23 11:48:43;;;;;;;10.68;6.50;;;;;;;19.47;39.77;98189.13;5091565;28;20028;-53